createdAt,value
2016-10-28T00:00:19.108Z,0
2016-10-28T00:01:19.091Z,0
2016-10-28T00:02:19.098Z,0
2016-10-28T00:03:19.078Z,0
2016-10-28T00:04:19.374Z,0
2016-10-28T00:05:19.084Z,0
2016-10-28T00:06:19.048Z,0
2016-10-28T00:07:19.050Z,0
2016-10-28T00:08:19.046Z,0
2016-10-28T00:09:19.035Z,0
2016-10-28T00:10:19.026Z,0
2016-10-28T00:11:19.049Z,0
2016-10-28T00:12:19.020Z,0
2016-10-28T00:13:19.023Z,0
2016-10-28T00:14:19.026Z,0
2016-10-28T00:15:18.977Z,0
2016-10-28T00:16:18.983Z,0
2016-10-28T00:17:18.976Z,0
2016-10-28T00:18:18.960Z,0
2016-10-28T00:19:18.953Z,0
2016-10-28T00:20:18.941Z,0
2016-10-28T00:21:18.938Z,0
2016-10-28T00:22:18.925Z,0
2016-10-28T00:23:18.927Z,0
2016-10-28T00:24:18.909Z,0
2016-10-28T00:25:18.904Z,0
2016-10-28T00:26:18.905Z,0
2016-10-28T00:27:18.913Z,0
2016-10-28T00:28:18.882Z,0
2016-10-28T00:29:18.878Z,0
2016-10-28T00:30:18.866Z,0
2016-10-28T00:31:18.868Z,0
2016-10-28T00:32:18.848Z,0
2016-10-28T00:33:19.143Z,0
2016-10-28T00:34:18.867Z,0
2016-10-28T00:35:18.870Z,0
2016-10-28T00:36:20.120Z,0
2016-10-28T00:37:19.916Z,0
2016-10-28T00:38:19.004Z,0
2016-10-28T00:39:19.782Z,0
2016-10-28T00:40:19.792Z,0
2016-10-28T00:41:19.433Z,0
2016-10-28T00:42:22.075Z,0
2016-10-28T00:43:18.802Z,0
2016-10-28T00:44:21.478Z,0
2016-10-28T00:45:21.325Z,0
2016-10-28T00:46:19.436Z,0
2016-10-28T00:47:19.639Z,0
2016-10-28T00:48:19.278Z,0
2016-10-28T00:49:19.169Z,0
2016-10-28T00:50:18.718Z,0
2016-10-28T00:51:20.441Z,0
2016-10-28T00:52:22.022Z,0
2016-10-28T00:53:19.663Z,0
2016-10-28T00:54:19.301Z,0
2016-10-28T00:55:18.977Z,0
2016-10-28T00:56:19.252Z,0
2016-10-28T00:57:19.516Z,0
2016-10-28T00:58:18.654Z,0
2016-10-28T00:59:18.947Z,0
2016-10-28T01:00:18.640Z,0
2016-10-28T01:01:18.626Z,0
2016-10-28T01:02:18.610Z,0
2016-10-28T01:03:18.607Z,0
2016-10-28T01:04:18.635Z,0
2016-10-28T01:05:18.587Z,0
2016-10-28T01:06:18.593Z,0
2016-10-28T01:07:18.578Z,0
2016-10-28T01:08:18.575Z,0
2016-10-28T01:09:18.565Z,0
2016-10-28T01:10:18.888Z,0
2016-10-28T01:11:18.551Z,0
2016-10-28T01:12:18.550Z,0
2016-10-28T01:13:18.534Z,0
2016-10-28T01:14:18.526Z,0
2016-10-28T01:15:18.522Z,0
2016-10-28T01:16:18.509Z,0
2016-10-28T01:17:18.502Z,0
2016-10-28T01:18:18.497Z,0
2016-10-28T01:19:18.487Z,0
2016-10-28T01:20:18.486Z,0
2016-10-28T01:21:18.472Z,0
2016-10-28T01:22:18.462Z,0
2016-10-28T01:23:18.459Z,0
2016-10-28T01:24:18.452Z,0
2016-10-28T01:25:18.443Z,0
2016-10-28T01:26:18.434Z,0
2016-10-28T01:27:18.422Z,0
2016-10-28T01:28:18.424Z,0
2016-10-28T01:29:18.416Z,0
2016-10-28T01:30:18.404Z,0
2016-10-28T01:31:18.398Z,0
2016-10-28T01:32:18.392Z,0
2016-10-28T01:33:18.379Z,0
2016-10-28T01:34:18.368Z,0
2016-10-28T01:35:18.368Z,0
2016-10-28T01:36:18.366Z,0
2016-10-28T01:37:18.346Z,0
2016-10-28T01:38:18.346Z,0
2016-10-28T01:39:18.337Z,0
2016-10-28T01:40:18.327Z,0
2016-10-28T01:41:18.318Z,0
2016-10-28T01:42:18.323Z,0
2016-10-28T01:43:18.305Z,0
2016-10-28T01:44:18.299Z,0
2016-10-28T01:45:18.293Z,0
2016-10-28T01:46:18.292Z,0
2016-10-28T01:47:18.274Z,0
2016-10-28T01:48:18.268Z,0
2016-10-28T01:49:18.251Z,0
2016-10-28T01:50:18.255Z,0
2016-10-28T01:51:18.269Z,0
2016-10-28T01:52:18.251Z,0
2016-10-28T01:53:18.238Z,0
2016-10-28T01:54:18.369Z,0
2016-10-28T01:55:18.215Z,0
2016-10-28T01:56:34.524Z,0
2016-10-28T01:57:18.550Z,0
2016-10-28T01:58:19.595Z,0
2016-10-28T01:59:18.175Z,0
2016-10-28T02:00:19.004Z,0
2016-10-28T02:01:20.176Z,0
2016-10-28T02:02:20.149Z,0
2016-10-28T02:03:35.816Z,0
2016-10-28T02:04:19.964Z,0
2016-10-28T02:06:19.783Z,0
2016-10-28T02:07:18.676Z,0
2016-10-28T02:08:18.715Z,0
2016-10-28T02:09:18.549Z,0
2016-10-28T02:10:19.455Z,0
2016-10-28T02:11:18.095Z,0
2016-10-28T02:12:18.581Z,0
2016-10-28T02:13:18.845Z,0
2016-10-28T02:14:18.069Z,0
2016-10-28T02:15:18.908Z,0
2016-10-28T02:16:18.061Z,0
2016-10-28T02:17:18.078Z,0
2016-10-28T02:18:18.050Z,0
2016-10-28T02:19:18.056Z,0
2016-10-28T02:20:18.049Z,0
2016-10-28T02:21:18.062Z,0
2016-10-28T02:22:18.023Z,0
2016-10-28T02:23:18.025Z,0
2016-10-28T02:24:18.030Z,0
2016-10-28T02:25:17.987Z,0
2016-10-28T02:26:18.076Z,0
2016-10-28T02:27:17.978Z,0
2016-10-28T02:28:17.969Z,0
2016-10-28T02:29:17.968Z,0
2016-10-28T02:30:17.954Z,0
2016-10-28T02:31:17.949Z,0
2016-10-28T02:32:17.943Z,0
2016-10-28T02:33:17.937Z,0
2016-10-28T02:34:17.927Z,0
2016-10-28T02:35:17.921Z,0
2016-10-28T02:36:17.914Z,0
2016-10-28T02:37:17.908Z,0
2016-10-28T02:38:17.897Z,0
2016-10-28T02:39:17.890Z,0
2016-10-28T02:40:17.895Z,0
2016-10-28T02:41:17.875Z,0
2016-10-28T02:42:17.867Z,0
2016-10-28T02:43:17.859Z,0
2016-10-28T02:44:17.849Z,0
2016-10-28T02:45:17.845Z,0
2016-10-28T02:46:17.835Z,0
2016-10-28T02:47:17.831Z,0
2016-10-28T02:48:17.822Z,0
2016-10-28T02:49:17.857Z,0
2016-10-28T02:50:17.850Z,0
2016-10-28T02:51:17.800Z,0
2016-10-28T02:52:17.792Z,0
2016-10-28T02:53:17.792Z,0
2016-10-28T02:54:17.783Z,0
2016-10-28T02:55:17.774Z,0
2016-10-28T02:56:17.769Z,0
2016-10-28T02:57:17.760Z,0
2016-10-28T02:58:17.752Z,0
2016-10-28T02:59:17.744Z,0
2016-10-28T03:00:17.737Z,0
2016-10-28T03:01:17.725Z,0
2016-10-28T03:02:17.723Z,0
2016-10-28T03:03:17.715Z,0
2016-10-28T03:04:17.717Z,0
2016-10-28T03:05:17.696Z,0
2016-10-28T03:06:17.695Z,0
2016-10-28T03:07:17.684Z,0
2016-10-28T03:08:17.677Z,0
2016-10-28T03:09:17.675Z,0
2016-10-28T03:10:17.668Z,0
2016-10-28T03:11:17.659Z,0
2016-10-28T03:12:18.249Z,0
2016-10-28T03:13:18.441Z,0
2016-10-28T03:14:17.980Z,0
2016-10-28T03:15:32.537Z,0
2016-10-28T03:16:18.171Z,0
2016-10-28T03:17:17.645Z,0
2016-10-28T03:18:17.607Z,0
2016-10-28T03:19:19.233Z,0
2016-10-28T03:20:18.119Z,0
2016-10-28T03:22:34.677Z,0
2016-10-28T03:23:19.291Z,0
2016-10-28T03:24:17.758Z,0
2016-10-28T03:25:33.242Z,0
2016-10-28T03:26:17.691Z,0
2016-10-28T03:27:17.544Z,0
2016-10-28T03:29:19.307Z,0
2016-10-28T03:30:17.522Z,0
2016-10-28T03:31:18.609Z,0
2016-10-28T03:32:18.496Z,0
2016-10-28T03:33:17.621Z,0
2016-10-28T03:34:17.489Z,0
2016-10-28T03:35:17.487Z,0
2016-10-28T03:36:17.479Z,0
2016-10-28T03:37:17.469Z,0
2016-10-28T03:38:17.470Z,0
2016-10-28T03:39:17.461Z,0
2016-10-28T03:40:17.446Z,0
2016-10-28T03:41:17.438Z,0
2016-10-28T03:42:17.433Z,0
2016-10-28T03:43:17.435Z,0
2016-10-28T03:44:17.417Z,0
2016-10-28T03:45:17.410Z,0
2016-10-28T03:46:17.410Z,0
2016-10-28T03:47:17.399Z,0
2016-10-28T03:48:17.393Z,0
2016-10-28T03:49:17.382Z,0
2016-10-28T03:50:17.394Z,0
2016-10-28T03:51:17.373Z,0
2016-10-28T03:52:17.364Z,0
2016-10-28T03:53:17.359Z,0
2016-10-28T03:54:17.351Z,0
2016-10-28T03:55:17.339Z,0
2016-10-28T03:56:17.339Z,0
2016-10-28T03:57:17.333Z,0
2016-10-28T03:58:17.324Z,0
2016-10-28T03:59:17.325Z,0
2016-10-28T04:00:17.311Z,0
2016-10-28T04:01:17.304Z,0
2016-10-28T04:02:17.285Z,0
2016-10-28T04:03:17.284Z,0
2016-10-28T04:04:17.278Z,0
2016-10-28T04:05:17.274Z,0
2016-10-28T04:06:17.264Z,0
2016-10-28T04:07:17.257Z,0
2016-10-28T04:08:17.253Z,0
2016-10-28T04:09:17.242Z,0
2016-10-28T04:10:17.242Z,0
2016-10-28T04:11:17.230Z,0
2016-10-28T04:12:17.216Z,0
2016-10-28T04:13:17.212Z,0
2016-10-28T04:14:17.207Z,0
2016-10-28T04:15:17.196Z,0
2016-10-28T04:16:17.199Z,0
2016-10-28T04:17:17.184Z,0
2016-10-28T04:18:17.185Z,0
2016-10-28T04:19:17.173Z,0
2016-10-28T04:20:17.163Z,0
2016-10-28T04:21:17.154Z,0
2016-10-28T04:22:17.151Z,0
2016-10-28T04:23:17.148Z,0
2016-10-28T04:24:17.138Z,0
2016-10-28T04:25:17.138Z,0
2016-10-28T04:26:17.129Z,0
2016-10-28T04:27:17.149Z,0
2016-10-28T04:28:17.110Z,0
2016-10-28T04:29:17.095Z,0
2016-10-28T04:30:17.094Z,0
2016-10-28T04:31:17.635Z,0
2016-10-28T04:32:17.931Z,0
2016-10-28T04:34:17.077Z,0
2016-10-28T04:35:17.052Z,0
2016-10-28T04:36:17.106Z,0
2016-10-28T04:38:20.087Z,0
2016-10-28T04:39:18.425Z,0
2016-10-28T04:40:17.728Z,0
2016-10-28T04:41:17.356Z,0
2016-10-28T04:42:18.504Z,0
2016-10-28T04:43:17.308Z,0
2016-10-28T04:44:17.287Z,0
2016-10-28T04:45:16.990Z,0
2016-10-28T04:46:19.403Z,0
2016-10-28T04:47:19.685Z,0
2016-10-28T04:48:16.963Z,0
2016-10-28T04:49:18.879Z,0
2016-10-28T04:50:16.942Z,0
2016-10-28T04:51:17.260Z,0
2016-10-28T04:52:16.927Z,0
2016-10-28T04:53:16.923Z,0
2016-10-28T04:54:16.915Z,0
2016-10-28T04:55:16.905Z,0
2016-10-28T04:56:16.943Z,0
2016-10-28T04:57:16.895Z,0
2016-10-28T04:58:16.893Z,0
2016-10-28T04:59:16.879Z,0
2016-10-28T05:00:16.872Z,0
2016-10-28T05:01:16.875Z,0
2016-10-28T05:02:16.854Z,0
2016-10-28T05:03:16.850Z,0
2016-10-28T05:04:16.836Z,0
2016-10-28T05:05:16.834Z,0
2016-10-28T05:06:16.832Z,0
2016-10-28T05:07:16.826Z,0
2016-10-28T05:08:16.815Z,0
2016-10-28T05:09:16.802Z,0
2016-10-28T05:10:16.791Z,0
2016-10-28T05:11:16.786Z,0
2016-10-28T05:12:16.780Z,0
2016-10-28T05:13:16.777Z,0
2016-10-28T05:14:16.769Z,0
2016-10-28T05:15:16.757Z,0
2016-10-28T05:16:16.748Z,0
2016-10-28T05:17:16.772Z,0
2016-10-28T05:18:16.738Z,0
2016-10-28T05:19:16.726Z,0
2016-10-28T05:20:16.716Z,0
2016-10-28T05:21:16.714Z,4
2016-10-28T05:22:16.700Z,4
2016-10-28T05:23:16.697Z,4
2016-10-28T05:24:16.691Z,0
2016-10-28T05:25:16.681Z,4
2016-10-28T05:26:16.700Z,4
2016-10-28T05:27:16.705Z,8
2016-10-28T05:28:16.655Z,4
2016-10-28T05:29:16.654Z,8
2016-10-28T05:30:16.647Z,12
2016-10-28T05:31:16.637Z,12
2016-10-28T05:32:16.626Z,16
2016-10-28T05:33:16.628Z,16
2016-10-28T05:34:16.615Z,16
2016-10-28T05:35:16.602Z,20
2016-10-28T05:36:16.599Z,32
2016-10-28T05:37:16.589Z,40
2016-10-28T05:38:16.580Z,44
2016-10-28T05:39:16.569Z,52
2016-10-28T05:40:16.570Z,56
2016-10-28T05:41:16.558Z,56
2016-10-28T05:42:16.579Z,56
2016-10-28T05:43:16.543Z,52
2016-10-28T05:44:16.535Z,52
2016-10-28T05:45:16.532Z,56
2016-10-28T05:46:16.572Z,56
2016-10-28T05:47:16.519Z,60
2016-10-28T05:48:16.550Z,56
2016-10-28T05:49:17.251Z,60
2016-10-28T05:50:17.495Z,68
2016-10-28T05:51:16.485Z,72
2016-10-28T05:52:17.975Z,80
2016-10-28T05:53:16.515Z,92
2016-10-28T05:54:16.469Z,96
2016-10-28T05:55:19.772Z,108
2016-10-28T05:57:17.840Z,120
2016-10-28T05:58:32.942Z,124
2016-10-28T05:59:16.829Z,136
2016-10-28T06:00:17.863Z,148
2016-10-28T06:01:17.197Z,160
2016-10-28T06:02:16.746Z,168
2016-10-28T06:03:16.393Z,196
2016-10-28T06:04:17.327Z,232
2016-10-28T06:05:18.897Z,296
2016-10-28T06:06:16.941Z,336
2016-10-28T06:07:17.007Z,348
2016-10-28T06:08:16.813Z,348
2016-10-28T06:09:17.604Z,360
2016-10-28T06:10:16.650Z,384
2016-10-28T06:11:16.340Z,384
2016-10-28T06:12:16.332Z,404
2016-10-28T06:13:16.324Z,432
2016-10-28T06:14:16.319Z,440
2016-10-28T06:15:16.303Z,428
2016-10-28T06:16:16.299Z,476
2016-10-28T06:17:16.301Z,568
2016-10-28T06:18:16.277Z,660
2016-10-28T06:19:16.307Z,724
2016-10-28T06:20:16.300Z,740
2016-10-28T06:21:16.271Z,692
2016-10-28T06:22:16.253Z,684
2016-10-28T06:23:16.254Z,756
2016-10-28T06:24:16.240Z,868
2016-10-28T06:25:16.248Z,980
2016-10-28T06:26:16.234Z,1060
2016-10-28T06:27:16.519Z,1120
2016-10-28T06:28:16.252Z,1152
2016-10-28T06:29:16.203Z,1152
2016-10-28T06:30:16.195Z,1128
2016-10-28T06:31:16.191Z,1028
2016-10-28T06:32:16.190Z,992
2016-10-28T06:33:16.174Z,924
2016-10-28T06:34:16.171Z,880
2016-10-28T06:35:16.214Z,928
2016-10-28T06:36:16.161Z,920
2016-10-28T06:37:16.157Z,896
2016-10-28T06:38:16.447Z,864
2016-10-28T06:39:16.169Z,884
2016-10-28T06:40:16.433Z,972
2016-10-28T06:41:16.131Z,1016
2016-10-28T06:42:16.109Z,1088
2016-10-28T06:43:16.114Z,1156
2016-10-28T06:44:16.108Z,1208
2016-10-28T06:45:16.096Z,1188
2016-10-28T06:46:16.093Z,1124
2016-10-28T06:47:16.081Z,1044
2016-10-28T06:48:16.082Z,960
2016-10-28T06:49:16.072Z,900
2016-10-28T06:50:16.062Z,928
2016-10-28T06:51:16.059Z,1012
2016-10-28T06:52:16.049Z,976
2016-10-28T06:53:16.342Z,920
2016-10-28T06:54:16.040Z,888
2016-10-28T06:55:16.060Z,968
2016-10-28T06:56:16.054Z,1132
2016-10-28T06:57:16.060Z,1056
2016-10-28T06:58:16.034Z,1080
2016-10-28T06:59:16.048Z,1112
2016-10-28T07:00:16.035Z,1188
2016-10-28T07:01:15.997Z,1224
2016-10-28T07:02:16.052Z,1248
2016-10-28T07:03:16.019Z,1272
2016-10-28T07:04:15.967Z,1304
2016-10-28T07:05:15.954Z,1368
2016-10-28T07:06:15.958Z,1512
2016-10-28T07:07:30.854Z,1752
2016-10-28T07:08:17.137Z,1880
2016-10-28T07:09:16.229Z,2000
2016-10-28T07:10:16.231Z,2160
2016-10-28T07:11:15.920Z,2188
2016-10-28T07:12:16.268Z,1968
2016-10-28T07:13:16.405Z,1912
2016-10-28T07:14:17.604Z,2040
2016-10-28T07:15:18.139Z,2260
2016-10-28T07:16:30.844Z,2328
2016-10-28T07:17:16.832Z,2296
2016-10-28T07:18:17.886Z,2240
2016-10-28T07:19:16.424Z,2272
2016-10-28T07:20:15.859Z,2264
2016-10-28T07:21:16.296Z,2228
2016-10-28T07:22:15.848Z,2200
2016-10-28T07:23:18.162Z,2252
2016-10-28T07:24:17.573Z,2432
2016-10-28T07:25:16.598Z,2700
2016-10-28T07:26:16.480Z,2964
2016-10-28T07:27:16.192Z,3132
2016-10-28T07:28:15.796Z,3452
2016-10-28T07:29:16.113Z,3724
2016-10-28T07:30:15.785Z,4092
2016-10-28T07:31:15.784Z,4068
2016-10-28T07:32:15.779Z,4100
2016-10-28T07:33:15.771Z,3988
2016-10-28T07:34:15.765Z,3804
2016-10-28T07:35:15.757Z,3728
2016-10-28T07:36:15.792Z,3624
2016-10-28T07:37:15.748Z,3488
2016-10-28T07:38:15.732Z,3592
2016-10-28T07:39:15.736Z,3776
2016-10-28T07:40:15.767Z,3680
2016-10-28T07:41:15.719Z,3600
2016-10-28T07:42:15.717Z,3592
2016-10-28T07:43:15.731Z,3424
2016-10-28T07:44:15.696Z,2800
2016-10-28T07:45:15.692Z,2672
2016-10-28T07:46:15.689Z,2676
2016-10-28T07:47:15.682Z,2592
2016-10-28T07:48:15.679Z,2568
2016-10-28T07:49:15.669Z,2788
2016-10-28T07:50:15.665Z,3184
2016-10-28T07:51:15.654Z,3540
2016-10-28T07:52:15.963Z,3564
2016-10-28T07:53:15.654Z,3492
2016-10-28T07:54:15.942Z,3380
2016-10-28T07:55:15.631Z,2956
2016-10-28T07:56:15.625Z,2840
2016-10-28T07:57:15.624Z,2832
2016-10-28T07:58:15.616Z,2772
2016-10-28T07:59:15.912Z,3008
2016-10-28T08:00:15.904Z,3248
2016-10-28T08:01:15.590Z,3392
2016-10-28T08:02:15.591Z,3492
2016-10-28T08:03:15.619Z,3660
2016-10-28T08:04:15.589Z,3768
2016-10-28T08:05:15.567Z,3344
2016-10-28T08:06:15.565Z,3332
2016-10-28T08:07:15.557Z,3216
2016-10-28T08:08:15.865Z,3296
2016-10-28T08:09:15.555Z,3612
2016-10-28T08:10:15.539Z,3884
2016-10-28T08:11:15.530Z,4164
2016-10-28T08:12:15.529Z,3844
2016-10-28T08:13:15.520Z,3596
2016-10-28T08:14:15.517Z,3596
2016-10-28T08:15:15.517Z,3556
2016-10-28T08:16:15.545Z,3836
2016-10-28T08:17:15.496Z,4536
2016-10-28T08:18:15.491Z,5064
2016-10-28T08:19:15.486Z,5096
2016-10-28T08:20:15.481Z,5412
2016-10-28T08:21:15.476Z,6060
2016-10-28T08:22:15.466Z,5924
2016-10-28T08:23:15.460Z,5420
2016-10-28T08:24:15.458Z,4684
2016-10-28T08:25:15.449Z,3872
2016-10-28T08:26:31.006Z,3252
2016-10-28T08:27:31.104Z,2964
2016-10-28T08:28:31.642Z,3048
2016-10-28T08:29:15.947Z,3248
2016-10-28T08:30:15.426Z,3712
2016-10-28T08:31:15.677Z,3872
2016-10-28T08:32:17.901Z,3948
2016-10-28T08:33:17.519Z,4096
2016-10-28T08:34:15.741Z,4264
2016-10-28T08:35:18.118Z,4372
2016-10-28T08:36:30.945Z,4624
2016-10-28T08:37:15.379Z,4780
2016-10-28T08:39:16.315Z,4876
2016-10-28T08:40:15.358Z,4824
2016-10-28T08:41:17.266Z,4676
2016-10-28T08:42:17.407Z,4508
2016-10-28T08:43:16.137Z,4224
2016-10-28T08:44:15.658Z,4384
2016-10-28T08:45:15.814Z,4284
2016-10-28T08:46:16.115Z,3996
2016-10-28T08:47:15.451Z,4020
2016-10-28T08:48:15.316Z,3992
2016-10-28T08:49:15.310Z,3800
2016-10-28T08:50:15.316Z,3832
2016-10-28T08:51:15.308Z,3676
2016-10-28T08:52:15.296Z,3788
2016-10-28T08:53:15.293Z,4244
2016-10-28T08:54:15.283Z,4924
2016-10-28T08:55:15.278Z,6736
2016-10-28T08:56:15.322Z,7692
2016-10-28T08:57:15.273Z,7052
2016-10-28T08:58:15.257Z,7104
2016-10-28T08:59:15.259Z,7728
2016-10-28T09:00:15.253Z,8256
2016-10-28T09:01:15.261Z,8472
2016-10-28T09:02:15.239Z,8584
2016-10-28T09:03:15.271Z,9352
2016-10-28T09:04:15.226Z,10180
2016-10-28T09:05:15.221Z,10192
2016-10-28T09:06:15.254Z,9260
2016-10-28T09:07:15.215Z,8204
2016-10-28T09:08:15.206Z,7672
2016-10-28T09:09:15.197Z,8184
2016-10-28T09:10:15.200Z,8776
2016-10-28T09:11:15.192Z,8504
2016-10-28T09:12:15.184Z,7844
2016-10-28T09:13:15.180Z,6808
2016-10-28T09:14:15.169Z,5948
2016-10-28T09:15:15.170Z,5608
2016-10-28T09:16:15.161Z,5740
2016-10-28T09:17:15.170Z,6012
2016-10-28T09:18:15.148Z,5936
2016-10-28T09:19:15.150Z,5720
2016-10-28T09:20:15.153Z,5364
2016-10-28T09:21:15.145Z,4972
2016-10-28T09:22:15.134Z,4564
2016-10-28T09:23:15.133Z,4412
2016-10-28T09:24:15.130Z,4584
2016-10-28T09:25:15.126Z,4900
2016-10-28T09:26:15.123Z,5216
2016-10-28T09:27:15.106Z,5744
2016-10-28T09:28:15.109Z,6708
2016-10-28T09:29:15.104Z,7460
2016-10-28T09:30:15.094Z,7672
2016-10-28T09:31:15.091Z,8108
2016-10-28T09:32:15.400Z,8380
2016-10-28T09:33:15.092Z,7740
2016-10-28T09:34:15.077Z,7088
2016-10-28T09:35:15.071Z,7036
2016-10-28T09:36:15.071Z,7036
2016-10-28T09:37:15.058Z,6992
2016-10-28T09:38:15.061Z,7412
2016-10-28T09:39:15.061Z,7620
2016-10-28T09:40:15.050Z,7200
2016-10-28T09:41:15.039Z,7828
2016-10-28T09:42:15.047Z,8936
2016-10-28T09:43:15.052Z,9260
2016-10-28T09:44:30.795Z,8648
2016-10-28T09:45:31.243Z,7052
2016-10-28T09:46:15.672Z,5680
2016-10-28T09:49:15.812Z,3864
2016-10-28T09:50:15.659Z,3732
2016-10-28T09:51:16.351Z,3684
2016-10-28T09:52:16.811Z,4044
2016-10-28T09:53:16.697Z,4436
2016-10-28T09:54:49.381Z,4856
2016-10-28T09:56:30.344Z,5608
2016-10-28T09:57:15.458Z,6060
2016-10-28T09:58:15.006Z,7456
2016-10-28T10:00:15.939Z,8808
2016-10-28T10:01:17.001Z,8560
2016-10-28T10:02:16.540Z,9156
2016-10-28T10:03:14.982Z,8956
2016-10-28T10:04:15.959Z,8248
2016-10-28T10:05:14.934Z,7316
2016-10-28T10:06:15.357Z,5848
2016-10-28T10:07:14.931Z,5384
2016-10-28T10:08:15.217Z,5156
2016-10-28T10:09:14.916Z,4980
2016-10-28T10:10:14.917Z,5076
2016-10-28T10:11:14.905Z,5700
2016-10-28T10:12:15.205Z,6452
2016-10-28T10:13:14.925Z,5900
2016-10-28T10:14:14.893Z,6664
2016-10-28T10:15:14.884Z,8236
2016-10-28T10:16:14.896Z,9384
2016-10-28T10:17:14.918Z,9564
2016-10-28T10:18:14.870Z,7940
2016-10-28T10:19:14.873Z,6552
2016-10-28T10:20:14.865Z,5684
2016-10-28T10:21:14.858Z,5500
2016-10-28T10:22:14.864Z,5932
2016-10-28T10:23:14.876Z,5828
2016-10-28T10:24:14.903Z,5460
2016-10-28T10:25:14.837Z,4980
2016-10-28T10:26:14.837Z,4780
2016-10-28T10:27:15.138Z,4660
2016-10-28T10:28:14.879Z,4528
2016-10-28T10:29:14.838Z,4668
2016-10-28T10:30:15.124Z,5028
2016-10-28T10:31:14.815Z,5168
2016-10-28T10:32:14.821Z,5156
2016-10-28T10:33:14.813Z,5280
2016-10-28T10:34:14.806Z,5296
2016-10-28T10:35:14.807Z,5456
2016-10-28T10:36:14.810Z,5564
2016-10-28T10:37:15.099Z,5248
2016-10-28T10:38:14.790Z,4684
2016-10-28T10:39:14.781Z,4032
2016-10-28T10:40:14.787Z,3768
2016-10-28T10:41:14.782Z,3408
2016-10-28T10:42:14.821Z,3672
2016-10-28T10:43:14.766Z,3944
2016-10-28T10:44:14.758Z,4312
2016-10-28T10:45:14.767Z,4616
2016-10-28T10:46:14.754Z,4636
2016-10-28T10:47:14.764Z,4852
2016-10-28T10:48:14.739Z,5452
2016-10-28T10:49:14.742Z,5808
2016-10-28T10:50:14.734Z,5420
2016-10-28T10:51:14.732Z,4868
2016-10-28T10:52:14.730Z,4864
2016-10-28T10:53:14.738Z,5440
2016-10-28T10:54:14.717Z,6036
2016-10-28T10:55:14.715Z,6720
2016-10-28T10:56:14.710Z,6648
2016-10-28T10:57:14.711Z,7304
2016-10-28T10:58:14.696Z,7976
2016-10-28T10:59:14.703Z,8576
2016-10-28T11:00:14.691Z,9836
2016-10-28T11:01:14.698Z,11916
2016-10-28T11:02:15.485Z,12696
2016-10-28T11:03:15.580Z,11048
2016-10-28T11:05:15.724Z,10232
2016-10-28T11:06:15.117Z,9372
2016-10-28T11:07:15.416Z,8340
2016-10-28T11:08:18.994Z,7840
2016-10-28T11:09:16.421Z,7896
2016-10-28T11:10:14.710Z,7128
2016-10-28T11:11:15.400Z,6252
2016-10-28T11:12:15.389Z,5288
2016-10-28T11:14:14.632Z,4048
2016-10-28T11:15:15.480Z,3744
2016-10-28T11:16:14.719Z,3528
2016-10-28T11:17:14.974Z,3824
2016-10-28T11:18:16.133Z,4140
2016-10-28T11:19:14.915Z,4516
2016-10-28T11:20:15.519Z,4620
2016-10-28T11:21:15.978Z,4464
2016-10-28T11:22:15.128Z,4168
2016-10-28T11:23:14.596Z,3936
2016-10-28T11:24:14.899Z,4340
2016-10-28T11:25:14.619Z,4480
2016-10-28T11:26:14.591Z,4428
2016-10-28T11:27:14.579Z,4316
2016-10-28T11:28:14.573Z,4080
2016-10-28T11:29:14.576Z,3672
2016-10-28T11:30:14.564Z,3288
2016-10-28T11:31:14.569Z,3032
2016-10-28T11:32:14.564Z,2928
2016-10-28T11:33:14.556Z,2944
2016-10-28T11:34:14.549Z,3128
2016-10-28T11:35:14.544Z,3396
2016-10-28T11:36:14.538Z,3832
2016-10-28T11:37:14.529Z,4260
2016-10-28T11:38:14.525Z,4756
2016-10-28T11:39:14.515Z,5140
2016-10-28T11:40:14.532Z,4896
2016-10-28T11:41:14.514Z,4376
2016-10-28T11:42:14.510Z,3864
2016-10-28T11:43:14.504Z,3476
2016-10-28T11:44:14.804Z,3156
2016-10-28T11:45:14.498Z,3056
2016-10-28T11:46:14.523Z,2852
2016-10-28T11:47:14.786Z,2700
2016-10-28T11:48:14.487Z,2684
2016-10-28T11:49:14.518Z,2640
2016-10-28T11:50:14.477Z,2684
2016-10-28T11:51:14.769Z,2748
2016-10-28T11:52:14.465Z,2812
2016-10-28T11:53:14.495Z,2652
2016-10-28T11:54:14.456Z,2412
2016-10-28T11:55:14.453Z,2112
2016-10-28T11:56:14.445Z,2040
2016-10-28T11:57:14.747Z,2012
2016-10-28T11:58:14.433Z,1940
2016-10-28T11:59:14.439Z,1876
2016-10-28T12:00:14.424Z,1920
2016-10-28T12:01:14.425Z,1956
2016-10-28T12:02:14.420Z,2120
2016-10-28T12:03:14.422Z,2208
2016-10-28T12:04:14.418Z,2268
2016-10-28T12:05:14.712Z,2380
2016-10-28T12:06:14.397Z,2668
2016-10-28T12:07:14.398Z,2976
2016-10-28T12:08:14.386Z,3180
2016-10-28T12:09:14.380Z,3276
2016-10-28T12:10:14.377Z,3480
2016-10-28T12:11:14.380Z,3500
2016-10-28T12:12:14.364Z,3356
2016-10-28T12:13:14.359Z,3072
2016-10-28T12:14:14.365Z,2720
2016-10-28T12:15:14.351Z,2332
2016-10-28T12:16:14.348Z,2212
2016-10-28T12:17:14.347Z,2348
2016-10-28T12:18:14.334Z,2460
2016-10-28T12:19:14.328Z,2812
2016-10-28T12:20:29.785Z,3224
2016-10-28T12:21:15.321Z,3612
2016-10-28T12:22:14.317Z,3656
2016-10-28T12:23:14.545Z,3816
2016-10-28T12:24:14.641Z,4096
2016-10-28T12:25:14.331Z,4188
2016-10-28T12:26:14.546Z,4276
2016-10-28T12:27:16.947Z,4408
2016-10-28T12:28:16.192Z,4748
2016-10-28T12:29:15.368Z,5140
2016-10-28T12:30:16.189Z,6004
2016-10-28T12:31:15.413Z,6328
2016-10-28T12:32:29.178Z,6084
2016-10-28T12:33:16.113Z,6140
2016-10-28T12:34:15.476Z,6548
2016-10-28T12:35:14.457Z,6976
2016-10-28T12:36:16.099Z,7276
2016-10-28T12:37:16.237Z,7388
2016-10-28T12:38:15.922Z,7336
2016-10-28T12:39:16.299Z,7156
2016-10-28T12:40:14.428Z,7196
2016-10-28T12:41:14.219Z,8112
2016-10-28T12:42:14.217Z,8480
2016-10-28T12:43:14.213Z,8456
2016-10-28T12:44:14.207Z,7396
2016-10-28T12:45:14.201Z,6428
2016-10-28T12:46:14.194Z,6336
2016-10-28T12:47:14.201Z,5504
2016-10-28T12:48:14.190Z,4844
2016-10-28T12:49:14.180Z,4512
2016-10-28T12:50:14.174Z,4316
2016-10-28T12:51:14.170Z,3700
2016-10-28T12:52:14.171Z,3900
2016-10-28T12:53:14.164Z,3840
2016-10-28T12:54:14.157Z,4200
2016-10-28T12:55:14.158Z,4320
2016-10-28T12:56:14.139Z,3896
2016-10-28T12:57:14.158Z,3448
2016-10-28T12:58:14.140Z,3240
2016-10-28T12:59:14.127Z,2840
2016-10-28T13:00:14.123Z,2872
2016-10-28T13:01:14.128Z,2816
2016-10-28T13:02:14.119Z,2888
2016-10-28T13:03:14.109Z,2868
2016-10-28T13:04:14.108Z,2820
2016-10-28T13:05:14.147Z,3180
2016-10-28T13:06:14.096Z,3324
2016-10-28T13:07:14.089Z,3400
2016-10-28T13:08:14.084Z,3296
2016-10-28T13:09:14.397Z,3000
2016-10-28T13:10:14.073Z,2928
2016-10-28T13:11:14.073Z,2972
2016-10-28T13:12:14.062Z,3328
2016-10-28T13:13:14.069Z,3268
2016-10-28T13:14:14.062Z,3340
2016-10-28T13:15:14.052Z,3200
2016-10-28T13:16:14.048Z,2800
2016-10-28T13:17:14.341Z,2756
2016-10-28T13:18:14.330Z,2848
2016-10-28T13:19:14.049Z,3060
2016-10-28T13:20:14.046Z,3268
2016-10-28T13:21:14.016Z,3220
2016-10-28T13:22:14.055Z,3460
2016-10-28T13:23:14.048Z,3488
2016-10-28T13:24:14.003Z,3560
2016-10-28T13:25:14.062Z,3584
2016-10-28T13:26:14.050Z,3716
2016-10-28T13:27:14.309Z,3896
2016-10-28T13:28:13.978Z,3760
2016-10-28T13:29:13.976Z,3688
2016-10-28T13:30:14.032Z,3376
2016-10-28T13:31:14.052Z,3232
2016-10-28T13:32:14.033Z,2896
2016-10-28T13:33:13.953Z,2716
2016-10-28T13:34:13.957Z,2888
2016-10-28T13:35:14.252Z,3024
2016-10-28T13:36:13.948Z,3120
2016-10-28T13:37:13.936Z,3156
2016-10-28T13:38:13.934Z,3392
2016-10-28T13:40:14.173Z,3416
2016-10-28T13:41:13.920Z,3048
2016-10-28T13:42:14.612Z,2856
2016-10-28T13:43:14.400Z,2676
2016-10-28T13:44:13.941Z,2452
2016-10-28T13:47:15.757Z,1640
2016-10-28T13:48:14.587Z,1648
2016-10-28T13:49:15.175Z,1780
2016-10-28T13:50:15.243Z,1856
2016-10-28T13:51:29.243Z,2104
2016-10-28T13:52:13.856Z,1980
2016-10-28T13:53:13.888Z,1704
2016-10-28T13:55:16.766Z,1536
2016-10-28T13:56:15.921Z,1468
2016-10-28T13:57:15.021Z,1552
2016-10-28T13:58:14.013Z,1800
2016-10-28T13:59:14.062Z,1904
2016-10-28T14:00:13.816Z,1864
2016-10-28T14:01:13.818Z,1712
2016-10-28T14:02:13.929Z,1416
2016-10-28T14:03:13.819Z,1276
2016-10-28T14:04:13.834Z,1172
2016-10-28T14:05:13.796Z,1088
2016-10-28T14:06:13.822Z,940
2016-10-28T14:07:13.788Z,1008
2016-10-28T14:08:14.084Z,1076
2016-10-28T14:09:13.775Z,1100
2016-10-28T14:10:13.775Z,1112
2016-10-28T14:11:13.768Z,1048